createdAt,value
2022-10-13T00:00:21.019Z,100.00
2022-10-13T00:01:25.335Z,100.00
2022-10-13T00:02:29.554Z,100.00
2022-10-13T00:03:33.878Z,100.00
2022-10-13T00:04:38.121Z,100.00
2022-10-13T00:05:42.478Z,100.00
2022-10-13T00:06:46.572Z,100.00
2022-10-13T00:07:50.888Z,99.95
2022-10-13T00:08:55.200Z,99.87
2022-10-13T00:09:59.436Z,99.82
2022-10-13T00:11:03.756Z,99.74
2022-10-13T00:12:07.821Z,99.63
2022-10-13T00:13:12.185Z,99.59
2022-10-13T00:14:16.447Z,99.60
2022-10-13T00:15:20.760Z,99.52
2022-10-13T00:16:25.019Z,99.54
2022-10-13T00:17:29.405Z,99.54
2022-10-13T00:18:33.571Z,99.58
2022-10-13T00:19:37.942Z,99.57
2022-10-13T00:20:42.049Z,99.51
2022-10-13T00:21:46.297Z,99.50
2022-10-13T00:22:50.577Z,99.47
2022-10-13T00:23:54.696Z,99.42
2022-10-13T00:24:58.933Z,99.41
2022-10-13T00:26:03.327Z,99.41
2022-10-13T00:27:07.337Z,99.39
2022-10-13T00:28:11.825Z,99.39
2022-10-13T00:29:15.787Z,99.41
2022-10-13T00:30:20.085Z,99.34
2022-10-13T00:31:24.485Z,99.32
2022-10-13T00:32:28.720Z,99.31
2022-10-13T00:33:33.010Z,99.35
2022-10-13T00:34:37.035Z,99.42
2022-10-13T00:35:41.400Z,99.51
2022-10-13T00:36:45.630Z,99.57
2022-10-13T00:37:49.851Z,99.62
2022-10-13T00:38:54.219Z,99.59
2022-10-13T00:39:58.457Z,99.55
2022-10-13T00:41:02.526Z,99.47
2022-10-13T00:42:06.989Z,99.43
2022-10-13T00:43:11.237Z,99.47
2022-10-13T00:44:15.290Z,99.54
2022-10-13T00:45:19.681Z,99.67
2022-10-13T00:46:23.943Z,99.78
2022-10-13T00:47:28.286Z,99.91
2022-10-13T00:48:35.532Z,100.00
2022-10-13T00:49:38.916Z,100.00
2022-10-13T00:50:43.114Z,100.00
2022-10-13T00:51:47.365Z,100.00
2022-10-13T00:52:51.642Z,100.00
2022-10-13T00:53:55.671Z,100.00
2022-10-13T00:55:00.036Z,100.00
2022-10-13T00:56:04.385Z,100.00
2022-10-13T00:57:08.612Z,100.00
2022-10-13T00:58:12.657Z,100.00
2022-10-13T00:59:17.032Z,100.00
2022-10-13T01:00:21.351Z,100.00
2022-10-13T01:01:25.558Z,100.00
2022-10-13T01:02:29.835Z,100.00
2022-10-13T01:03:34.076Z,100.00
2022-10-13T01:04:38.437Z,100.00
2022-10-13T01:05:42.620Z,100.00
2022-10-13T01:06:46.879Z,100.00
2022-10-13T01:07:51.183Z,100.00
2022-10-13T01:08:55.311Z,100.00
2022-10-13T01:09:59.606Z,100.00
2022-10-13T01:11:03.659Z,100.00
2022-10-13T01:12:08.038Z,100.00
2022-10-13T01:13:12.297Z,100.00
2022-10-13T01:14:16.567Z,100.00
2022-10-13T01:15:20.810Z,100.00
2022-10-13T01:16:25.081Z,100.00
2022-10-13T01:17:29.446Z,100.00
2022-10-13T01:18:33.737Z,100.00
2022-10-13T01:19:37.839Z,100.00
2022-10-13T01:20:42.190Z,100.00
2022-10-13T01:21:46.443Z,100.00
2022-10-13T01:22:50.705Z,100.00
2022-10-13T01:23:54.837Z,100.00
2022-10-13T01:24:59.036Z,100.00
2022-10-13T01:26:06.345Z,100.00
2022-10-13T01:27:09.769Z,100.00
2022-10-13T01:28:13.999Z,100.00
2022-10-13T01:29:18.169Z,100.00
2022-10-13T01:30:22.388Z,100.00
2022-10-13T01:31:26.636Z,100.00
2022-10-13T01:32:30.695Z,100.00
2022-10-13T01:33:35.090Z,100.00
2022-10-13T01:34:39.135Z,100.00
2022-10-13T01:35:43.378Z,100.00
2022-10-13T01:36:47.825Z,100.00
2022-10-13T01:37:52.046Z,100.00
2022-10-13T01:38:56.276Z,100.00
2022-10-13T01:40:00.508Z,100.00
2022-10-13T01:41:04.771Z,100.00
2022-10-13T01:42:11.084Z,100.00
2022-10-13T01:43:13.070Z,100.00
2022-10-13T01:44:17.461Z,100.00
2022-10-13T01:45:21.760Z,100.00
2022-10-13T01:46:26.010Z,100.00
2022-10-13T01:47:30.340Z,100.00
2022-10-13T01:48:34.333Z,100.00
2022-10-13T01:49:38.678Z,100.00
2022-10-13T01:50:42.942Z,100.00
2022-10-13T01:51:47.262Z,100.00
2022-10-13T01:52:51.528Z,100.00
2022-10-13T01:53:55.591Z,100.00
2022-10-13T01:54:59.810Z,100.00
2022-10-13T01:56:04.219Z,100.00
2022-10-13T01:57:08.477Z,100.00
2022-10-13T01:58:12.710Z,100.00
2022-10-13T01:59:16.995Z,100.00
2022-10-13T02:00:21.050Z,100.00
2022-10-13T02:01:25.315Z,100.00
2022-10-13T02:02:29.649Z,100.00
2022-10-13T02:03:33.887Z,100.00
2022-10-13T02:04:38.215Z,100.00
2022-10-13T02:05:42.450Z,100.00
2022-10-13T02:06:46.715Z,100.00
2022-10-13T02:07:51.066Z,100.00
2022-10-13T02:08:55.400Z,100.00
2022-10-13T02:09:59.620Z,100.00
2022-10-13T02:11:03.845Z,100.00
2022-10-13T02:12:08.089Z,100.00
2022-10-13T02:13:12.330Z,100.00
2022-10-13T02:14:16.621Z,100.00
2022-10-13T02:15:20.949Z,100.00
2022-10-13T02:16:25.085Z,100.00
2022-10-13T02:17:29.511Z,100.00
2022-10-13T02:18:33.750Z,100.00
2022-10-13T02:19:37.956Z,100.00
2022-10-13T02:20:42.276Z,100.00
2022-10-13T02:21:46.551Z,100.00
2022-10-13T02:22:50.891Z,100.00
2022-10-13T02:23:55.118Z,100.00
2022-10-13T02:24:59.429Z,100.00
2022-10-13T02:26:03.677Z,100.00
2022-10-13T02:27:07.908Z,100.00
2022-10-13T02:28:12.268Z,100.00
2022-10-13T02:29:16.339Z,100.00
2022-10-13T02:30:20.663Z,100.00
2022-10-13T02:31:24.934Z,100.00
2022-10-13T02:32:29.120Z,100.00
2022-10-13T02:33:33.429Z,100.00
2022-10-13T02:34:37.781Z,100.00
2022-10-13T02:35:41.993Z,100.00
2022-10-13T02:36:46.282Z,100.00
2022-10-13T02:37:50.520Z,100.00
2022-10-13T02:38:54.806Z,100.00
2022-10-13T02:39:59.070Z,100.00
2022-10-13T02:41:03.384Z,100.00
2022-10-13T02:42:07.670Z,100.00
2022-10-13T02:43:11.911Z,100.00
2022-10-13T02:44:16.269Z,100.00
2022-10-13T02:45:20.481Z,100.00
2022-10-13T02:46:24.776Z,100.00
2022-10-13T02:47:28.886Z,100.00
2022-10-13T02:48:33.249Z,100.00
2022-10-13T02:49:37.512Z,100.00
2022-10-13T02:50:41.877Z,100.00
2022-10-13T02:51:46.085Z,100.00
2022-10-13T02:52:50.458Z,100.00
2022-10-13T02:53:54.760Z,100.00
2022-10-13T02:54:59.071Z,100.00
2022-10-13T02:56:03.393Z,100.00
2022-10-13T02:57:07.722Z,100.00
2022-10-13T02:58:12.041Z,100.00
2022-10-13T02:59:16.092Z,100.00
2022-10-13T03:00:20.358Z,100.00
2022-10-13T03:01:24.766Z,100.00
2022-10-13T03:02:29.085Z,100.00
2022-10-13T03:03:33.129Z,100.00
2022-10-13T03:04:37.514Z,100.00
2022-10-13T03:05:41.776Z,100.00
2022-10-13T03:06:45.931Z,100.00
2022-10-13T03:07:50.343Z,100.00
2022-10-13T03:08:54.469Z,100.00
2022-10-13T03:09:58.762Z,100.00
2022-10-13T03:11:03.034Z,100.00
2022-10-13T03:12:07.202Z,100.00
2022-10-13T03:13:11.563Z,100.00
2022-10-13T03:14:18.818Z,100.00
2022-10-13T03:15:22.185Z,100.00
2022-10-13T03:16:26.334Z,100.00
2022-10-13T03:17:30.507Z,100.00
2022-10-13T03:18:34.807Z,100.00
2022-10-13T03:19:39.088Z,100.00
2022-10-13T03:20:43.425Z,100.00
2022-10-13T03:21:47.653Z,100.00
2022-10-13T03:22:51.918Z,100.00
2022-10-13T03:23:56.145Z,100.00
2022-10-13T03:25:00.511Z,100.00
2022-10-13T03:26:04.730Z,100.00
2022-10-13T03:27:08.988Z,100.00
2022-10-13T03:28:13.177Z,100.00
2022-10-13T03:29:17.458Z,100.00
2022-10-13T03:30:21.523Z,100.00
2022-10-13T03:31:25.808Z,100.00
2022-10-13T03:32:30.129Z,100.00
2022-10-13T03:33:34.497Z,100.00
2022-10-13T03:34:38.607Z,100.00
2022-10-13T03:35:43.024Z,100.00
2022-10-13T03:36:47.285Z,100.00
2022-10-13T03:37:51.633Z,100.00
2022-10-13T03:38:55.867Z,100.00
2022-10-13T03:40:00.128Z,100.00
2022-10-13T03:41:04.380Z,100.00
2022-10-13T03:42:08.665Z,100.00
2022-10-13T03:43:13.026Z,100.00
2022-10-13T03:44:17.235Z,100.00
2022-10-13T03:45:21.573Z,100.00
2022-10-13T03:46:25.795Z,100.00
2022-10-13T03:47:30.078Z,100.00
2022-10-13T03:48:34.290Z,100.00
2022-10-13T03:49:38.419Z,100.00
2022-10-13T03:50:42.734Z,100.00
2022-10-13T03:51:46.961Z,100.00
2022-10-13T03:52:51.192Z,100.00
2022-10-13T03:53:55.396Z,100.00
2022-10-13T03:54:59.695Z,100.00
2022-10-13T03:56:03.934Z,100.00
2022-10-13T03:57:08.197Z,100.00
2022-10-13T03:58:12.399Z,100.00
2022-10-13T03:59:16.748Z,100.00
2022-10-13T04:00:21.073Z,100.00
2022-10-13T04:01:25.288Z,100.00
2022-10-13T04:02:29.523Z,100.00
2022-10-13T04:03:33.695Z,100.00
2022-10-13T04:04:40.855Z,100.00
2022-10-13T04:05:44.212Z,100.00
2022-10-13T04:06:48.435Z,100.00
2022-10-13T04:07:52.724Z,100.00
2022-10-13T04:08:56.948Z,100.00
2022-10-13T04:10:01.004Z,100.00
2022-10-13T04:11:05.282Z,100.00
2022-10-13T04:12:09.604Z,100.00
2022-10-13T04:13:13.867Z,100.00
2022-10-13T04:14:18.048Z,100.00
2022-10-13T04:15:22.351Z,100.00
2022-10-13T04:16:26.748Z,100.00
2022-10-13T04:17:30.848Z,100.00
2022-10-13T04:18:35.169Z,100.00
2022-10-13T04:19:39.522Z,100.00
2022-10-13T04:20:43.641Z,100.00
2022-10-13T04:21:47.975Z,100.00
2022-10-13T04:22:52.341Z,100.00
2022-10-13T04:23:56.480Z,100.00
2022-10-13T04:25:00.913Z,100.00
2022-10-13T04:26:05.166Z,100.00
2022-10-13T04:27:09.515Z,100.00
2022-10-13T04:28:13.720Z,100.00
2022-10-13T04:29:18.025Z,100.00
2022-10-13T04:30:22.065Z,100.00
2022-10-13T04:31:26.355Z,100.00
2022-10-13T04:32:30.838Z,100.00
2022-10-13T04:33:34.999Z,100.00
2022-10-13T04:34:39.301Z,100.00
2022-10-13T04:35:43.380Z,100.00
2022-10-13T04:36:47.777Z,100.00
2022-10-13T04:37:52.051Z,100.00
2022-10-13T04:38:56.242Z,100.00
2022-10-13T04:40:00.624Z,100.00
2022-10-13T04:41:04.923Z,100.00
2022-10-13T04:42:09.042Z,100.00
2022-10-13T04:43:13.460Z,100.00
2022-10-13T04:44:17.494Z,100.00
2022-10-13T04:45:21.840Z,100.00
2022-10-13T04:46:26.038Z,100.00
2022-10-13T04:47:34.721Z,100.00
2022-10-13T04:48:34.683Z,100.00
2022-10-13T04:49:38.944Z,100.00
2022-10-13T04:50:43.193Z,100.00
2022-10-13T04:51:47.596Z,100.00
2022-10-13T04:52:51.861Z,100.00
2022-10-13T04:53:56.125Z,100.00
2022-10-13T04:55:00.504Z,100.00
2022-10-13T04:56:04.691Z,100.00
2022-10-13T04:57:08.975Z,100.00
2022-10-13T04:58:13.345Z,100.00
2022-10-13T04:59:17.499Z,100.00
2022-10-13T05:00:21.731Z,100.00
2022-10-13T05:01:25.819Z,100.00
2022-10-13T05:02:30.248Z,100.00
2022-10-13T05:03:34.457Z,100.00
2022-10-13T05:04:38.803Z,100.00
2022-10-13T05:05:43.143Z,100.00
2022-10-13T05:07:16.114Z,100.00
2022-10-13T05:07:51.694Z,100.00
2022-10-13T05:08:56.069Z,100.00
2022-10-13T05:10:00.334Z,100.00
2022-10-13T05:11:04.592Z,100.00
2022-10-13T05:12:08.764Z,100.00
2022-10-13T05:13:13.021Z,100.00
2022-10-13T05:14:17.409Z,100.00
2022-10-13T05:15:21.629Z,100.00
2022-10-13T05:16:26.042Z,100.00
2022-10-13T05:17:34.859Z,100.00
2022-10-13T05:18:34.326Z,100.00
2022-10-13T05:19:38.714Z,100.00
2022-10-13T05:20:43.068Z,100.00
2022-10-13T05:21:47.358Z,100.00
2022-10-13T05:22:51.686Z,100.00
2022-10-13T05:23:55.920Z,100.00
2022-10-13T05:25:00.003Z,100.00
2022-10-13T05:26:04.471Z,100.00
2022-10-13T05:27:08.503Z,100.00
2022-10-13T05:28:12.741Z,100.00
2022-10-13T05:29:17.154Z,100.00
2022-10-13T05:30:21.200Z,100.00
2022-10-13T05:31:25.597Z,100.00
2022-10-13T05:32:29.817Z,100.00
2022-10-13T05:33:34.075Z,100.00
2022-10-13T05:34:38.336Z,100.00
2022-10-13T05:35:42.509Z,100.00
2022-10-13T05:36:46.943Z,100.00
2022-10-13T05:37:51.250Z,100.00
2022-10-13T05:38:55.580Z,100.00
2022-10-13T05:39:59.906Z,100.00
2022-10-13T05:41:04.178Z,100.00
2022-10-13T05:42:11.266Z,100.00
2022-10-13T05:43:14.750Z,100.00
2022-10-13T05:44:18.963Z,100.00
2022-10-13T05:45:23.252Z,100.00
2022-10-13T05:46:27.559Z,100.00
2022-10-13T05:47:31.792Z,100.00
2022-10-13T05:48:36.055Z,100.00
2022-10-13T05:49:40.340Z,100.00
2022-10-13T05:50:44.681Z,100.00
2022-10-13T05:51:48.959Z,100.00
2022-10-13T05:52:53.007Z,100.00
2022-10-13T05:53:57.949Z,100.00
2022-10-13T05:55:01.719Z,100.00
2022-10-13T05:56:06.005Z,100.00
2022-10-13T05:57:10.179Z,100.00
2022-10-13T05:58:14.427Z,100.00
2022-10-13T05:59:20.544Z,100.00
2022-10-13T06:00:22.851Z,100.00
2022-10-13T06:01:27.334Z,100.00
2022-10-13T06:02:31.478Z,100.00
2022-10-13T06:03:35.875Z,100.00
2022-10-13T06:04:40.159Z,100.00
2022-10-13T06:05:44.429Z,100.00
2022-10-13T06:06:48.708Z,100.00
2022-10-13T06:07:53.016Z,100.00
2022-10-13T06:08:57.285Z,100.00
2022-10-13T06:10:01.359Z,100.00
2022-10-13T06:11:05.831Z,100.00
2022-10-13T06:12:09.887Z,100.00
2022-10-13T06:13:14.343Z,100.00
2022-10-13T06:14:18.619Z,100.00
2022-10-13T06:15:27.804Z,100.00
2022-10-13T06:16:27.174Z,100.00
2022-10-13T06:17:31.476Z,100.00
2022-10-13T06:18:35.821Z,100.00
2022-10-13T06:19:40.086Z,100.00
2022-10-13T06:20:44.302Z,100.00
2022-10-13T06:21:48.527Z,100.00
2022-10-13T06:22:52.848Z,100.00
2022-10-13T06:23:57.168Z,100.00
2022-10-13T06:25:01.477Z,100.00
2022-10-13T06:26:05.830Z,100.00
2022-10-13T06:27:10.070Z,100.00
2022-10-13T06:28:14.481Z,100.00
2022-10-13T06:29:18.743Z,100.00
2022-10-13T06:30:23.087Z,100.00
2022-10-13T06:31:27.409Z,100.00
2022-10-13T06:32:31.561Z,100.00
2022-10-13T06:33:35.860Z,100.00
2022-10-13T06:34:40.226Z,100.00
2022-10-13T06:35:44.465Z,100.00
2022-10-13T06:36:48.638Z,100.00
2022-10-13T06:37:52.869Z,100.00
2022-10-13T06:38:57.226Z,100.00
2022-10-13T06:40:01.555Z,100.00
2022-10-13T06:41:05.793Z,100.00
2022-10-13T06:42:09.907Z,100.00
2022-10-13T06:43:14.272Z,100.00
2022-10-13T06:44:18.685Z,100.00
2022-10-13T06:45:22.988Z,100.00
2022-10-13T06:46:27.177Z,100.00
2022-10-13T06:47:31.393Z,100.00
2022-10-13T06:48:35.722Z,100.00
2022-10-13T06:49:40.087Z,100.00
2022-10-13T06:50:44.436Z,100.00
2022-10-13T06:51:48.714Z,100.00
2022-10-13T06:52:52.794Z,100.00
2022-10-13T06:53:57.278Z,100.00
2022-10-13T06:55:01.514Z,100.00
2022-10-13T06:56:05.628Z,100.00
2022-10-13T06:57:09.971Z,100.00
2022-10-13T06:58:14.267Z,100.00
2022-10-13T06:59:18.650Z,100.00
2022-10-13T07:00:23.028Z,100.00
2022-10-13T07:01:27.267Z,100.00
2022-10-13T07:02:31.373Z,100.00
2022-10-13T07:03:35.537Z,100.00
2022-10-13T07:04:39.810Z,100.00
2022-10-13T07:05:44.084Z,100.00
2022-10-13T07:06:48.546Z,100.00
2022-10-13T07:07:52.856Z,100.00
2022-10-13T07:08:57.192Z,100.00
2022-10-13T07:10:01.441Z,100.00
2022-10-13T07:11:05.750Z,100.00
2022-10-13T07:12:09.874Z,100.00
2022-10-13T07:13:14.270Z,100.00
2022-10-13T07:14:18.315Z,100.00
2022-10-13T07:15:22.523Z,100.00
2022-10-13T07:16:26.795Z,100.00
2022-10-13T07:17:31.134Z,100.00
2022-10-13T07:18:35.443Z,100.00
2022-10-13T07:19:39.704Z,100.00
2022-10-13T07:20:44.012Z,100.00
2022-10-13T07:21:51.344Z,100.00
2022-10-13T07:22:54.706Z,100.00
2022-10-13T07:23:58.799Z,100.00
2022-10-13T07:25:03.197Z,100.00
2022-10-13T07:26:07.384Z,100.00
2022-10-13T07:27:11.807Z,100.00
2022-10-13T07:28:16.131Z,100.00
2022-10-13T07:29:20.127Z,100.00
2022-10-13T07:30:24.392Z,100.00
2022-10-13T07:31:28.812Z,100.00
2022-10-13T07:32:33.097Z,100.00
2022-10-13T07:33:37.486Z,100.00
2022-10-13T07:34:41.757Z,100.00
2022-10-13T07:35:46.028Z,100.00
2022-10-13T07:36:50.317Z,100.00
2022-10-13T07:37:54.685Z,100.00
2022-10-13T07:38:58.854Z,100.00
2022-10-13T07:40:03.102Z,100.00
2022-10-13T07:41:07.270Z,100.00
2022-10-13T07:42:11.665Z,100.00
2022-10-13T07:43:15.954Z,100.00
2022-10-13T07:44:20.324Z,100.00
2022-10-13T07:45:24.555Z,100.00
2022-10-13T07:46:29.871Z,100.00
2022-10-13T07:47:33.193Z,100.00
2022-10-13T07:48:37.472Z,100.00
2022-10-13T07:49:41.756Z,100.00
2022-10-13T07:50:46.113Z,100.00
2022-10-13T07:51:50.437Z,100.00
2022-10-13T07:52:54.702Z,100.00
2022-10-13T07:53:59.027Z,100.00
2022-10-13T07:55:03.367Z,100.00
2022-10-13T07:56:07.618Z,100.00
2022-10-13T07:57:11.933Z,100.00
2022-10-13T07:58:16.212Z,100.00
2022-10-13T07:59:20.575Z,100.00
2022-10-13T08:00:24.884Z,100.00
2022-10-13T08:01:29.204Z,100.00
2022-10-13T08:02:33.551Z,100.00
2022-10-13T08:03:37.937Z,100.00
2022-10-13T08:04:42.171Z,100.00
2022-10-13T08:05:46.281Z,100.00
2022-10-13T08:06:50.657Z,100.00
2022-10-13T08:07:57.605Z,100.00
2022-10-13T08:08:59.283Z,100.00
2022-10-13T08:10:03.581Z,100.00
2022-10-13T08:11:13.462Z,100.00
2022-10-13T08:12:14.262Z,100.00
2022-10-13T08:13:18.591Z,100.00
2022-10-13T08:14:22.981Z,100.00
2022-10-13T08:15:27.299Z,100.00
2022-10-13T08:16:31.592Z,100.00
2022-10-13T08:17:35.846Z,100.00
2022-10-13T08:18:40.206Z,100.00
2022-10-13T08:19:44.585Z,100.00
2022-10-13T08:20:48.825Z,100.00
2022-10-13T08:21:58.054Z,100.00
2022-10-13T08:22:57.534Z,100.00
2022-10-13T08:24:01.838Z,100.00
2022-10-13T08:25:06.123Z,100.00
2022-10-13T08:26:10.434Z,100.00
2022-10-13T08:27:14.801Z,100.00
2022-10-13T08:28:19.160Z,100.00
2022-10-13T08:29:24.284Z,100.00
2022-10-13T08:30:27.894Z,100.00
2022-10-13T08:31:32.393Z,100.00
2022-10-13T08:32:36.411Z,100.00
2022-10-13T08:33:40.667Z,100.00
2022-10-13T08:34:44.870Z,100.00
2022-10-13T08:35:49.224Z,100.00
2022-10-13T08:36:53.803Z,100.00
2022-10-13T08:37:57.941Z,100.00
2022-10-13T08:39:02.272Z,100.00
2022-10-13T08:40:06.531Z,100.00
2022-10-13T08:41:10.617Z,100.00
2022-10-13T08:42:15.090Z,100.00
2022-10-13T08:43:19.430Z,100.00
2022-10-13T08:45:40.790Z,100.00
2022-10-13T08:46:32.160Z,100.00
2022-10-13T08:47:36.603Z,100.00
2022-10-13T08:48:40.887Z,100.00
2022-10-13T08:49:45.281Z,100.00
2022-10-13T08:50:49.583Z,100.00
2022-10-13T08:51:53.657Z,100.00
2022-10-13T08:52:58.146Z,100.00
2022-10-13T08:54:02.393Z,100.00
2022-10-13T08:55:06.731Z,100.00
2022-10-13T08:56:11.077Z,100.00
2022-10-13T08:57:15.437Z,100.00
2022-10-13T08:58:19.796Z,100.00
2022-10-13T08:59:24.044Z,100.00
2022-10-13T09:00:31.350Z,100.00
2022-10-13T09:01:34.831Z,100.00
2022-10-13T09:02:39.060Z,100.00
2022-10-13T09:03:43.368Z,100.00
2022-10-13T09:04:47.763Z,100.00
2022-10-13T09:05:52.025Z,100.00
2022-10-13T09:06:56.332Z,100.00
2022-10-13T09:08:00.649Z,100.00
2022-10-13T09:09:04.976Z,100.00
2022-10-13T09:10:09.374Z,100.00
2022-10-13T09:11:13.722Z,100.00
2022-10-13T09:12:18.398Z,100.00
2022-10-13T09:13:22.301Z,100.00
2022-10-13T09:14:26.621Z,100.00
2022-10-13T09:15:30.928Z,100.00
2022-10-13T09:16:35.247Z,100.00
2022-10-13T09:17:39.578Z,100.00
2022-10-13T09:18:44.037Z,100.00
2022-10-13T09:19:48.274Z,100.00
2022-10-13T09:20:52.586Z,100.00
2022-10-13T09:21:57.019Z,100.00
2022-10-13T09:23:01.292Z,100.00
2022-10-13T09:24:05.597Z,100.00
2022-10-13T09:25:24.023Z,100.00
2022-10-13T09:26:27.233Z,100.00
2022-10-13T09:27:31.540Z,100.00
2022-10-13T09:28:35.894Z,100.00
2022-10-13T09:29:40.148Z,100.00
2022-10-13T09:30:44.548Z,100.00
2022-10-13T09:31:48.732Z,100.00
2022-10-13T09:32:56.066Z,100.00
2022-10-13T09:33:59.427Z,100.00
2022-10-13T09:35:03.616Z,100.00
2022-10-13T09:36:07.884Z,100.00
2022-10-13T09:37:12.155Z,100.00
2022-10-13T09:38:16.414Z,100.00
2022-10-13T09:39:20.702Z,100.00
2022-10-13T09:40:24.843Z,100.00
2022-10-13T09:41:29.141Z,100.00
2022-10-13T09:42:33.408Z,100.00
2022-10-13T09:43:37.683Z,100.00
2022-10-13T09:44:41.989Z,100.00
2022-10-13T09:45:46.368Z,100.00
2022-10-13T09:46:50.616Z,100.00
2022-10-13T09:47:54.892Z,100.00
2022-10-13T09:48:59.167Z,100.00
2022-10-13T09:50:07.381Z,100.00
2022-10-13T09:51:07.863Z,100.00
2022-10-13T09:52:12.054Z,100.00
2022-10-13T09:53:16.410Z,100.00
2022-10-13T09:54:20.589Z,100.00
2022-10-13T09:55:27.575Z,100.00
2022-10-13T09:56:29.069Z,100.00
2022-10-13T09:57:33.327Z,100.00
2022-10-13T09:58:37.599Z,100.00
2022-10-13T09:59:41.866Z,100.00
2022-10-13T10:00:46.225Z,100.00
2022-10-13T10:01:50.437Z,100.00
2022-10-13T10:02:54.859Z,100.00
2022-10-13T10:03:59.175Z,100.00
2022-10-13T10:05:03.342Z,100.00
2022-10-13T10:06:07.771Z,100.00
2022-10-13T10:07:11.937Z,100.00
2022-10-13T10:08:16.189Z,100.00
2022-10-13T10:09:20.491Z,100.00
2022-10-13T10:10:24.871Z,100.00
2022-10-13T10:11:29.107Z,100.00
2022-10-13T10:12:33.353Z,100.00
2022-10-13T10:13:37.599Z,100.00
2022-10-13T10:14:41.872Z,100.00
2022-10-13T10:15:46.170Z,100.00
2022-10-13T10:16:50.431Z,100.00
2022-10-13T10:17:54.708Z,100.00
2022-10-13T10:18:59.157Z,100.00
2022-10-13T10:20:03.285Z,100.00
2022-10-13T10:21:07.569Z,100.00
2022-10-13T10:22:11.824Z,100.00
2022-10-13T10:23:16.078Z,100.00
2022-10-13T10:24:20.350Z,100.00
2022-10-13T10:25:24.637Z,100.00
2022-10-13T10:26:32.659Z,100.00
2022-10-13T10:27:33.189Z,100.00
2022-10-13T10:28:37.547Z,100.00
2022-10-13T10:29:41.750Z,100.00
2022-10-13T10:30:46.053Z,100.00
2022-10-13T10:31:50.320Z,100.00
2022-10-13T10:32:54.610Z,100.00
2022-10-13T10:33:58.947Z,100.00
2022-10-13T10:35:03.242Z,100.00
2022-10-13T10:36:07.499Z,100.00
2022-10-13T10:37:11.801Z,100.00
2022-10-13T10:38:16.095Z,100.00
2022-10-13T10:39:23.345Z,100.00
2022-10-13T10:40:26.678Z,99.90
2022-10-13T10:41:30.967Z,99.91
2022-10-13T10:42:35.236Z,99.98
2022-10-13T10:43:39.488Z,99.93
2022-10-13T10:44:43.915Z,99.91
2022-10-13T10:45:48.122Z,100.00
2022-10-13T10:46:52.376Z,100.00
2022-10-13T10:47:56.639Z,99.96
2022-10-13T10:49:00.925Z,99.63
2022-10-13T10:50:05.262Z,99.58
2022-10-13T10:51:09.551Z,99.54
2022-10-13T10:52:13.789Z,99.51
2022-10-13T10:53:18.141Z,99.50
2022-10-13T10:54:22.360Z,99.21
2022-10-13T10:55:26.668Z,99.06
2022-10-13T10:56:30.972Z,99.05
2022-10-13T10:57:35.265Z,99.08
2022-10-13T10:58:39.523Z,99.14
2022-10-13T10:59:43.843Z,99.12
2022-10-13T11:00:48.144Z,99.09
2022-10-13T11:01:52.545Z,99.02
2022-10-13T11:02:56.704Z,99.03
2022-10-13T11:04:01.017Z,98.96
2022-10-13T11:05:06.460Z,99.00
2022-10-13T11:06:09.620Z,98.94
2022-10-13T11:07:13.920Z,98.89
2022-10-13T11:08:18.315Z,98.88
2022-10-13T11:09:22.598Z,98.83
2022-10-13T11:10:26.799Z,98.86
2022-10-13T11:11:36.441Z,98.89
2022-10-13T11:12:35.378Z,98.83
2022-10-13T11:13:39.686Z,98.81
2022-10-13T11:14:43.969Z,98.86
2022-10-13T11:15:48.282Z,98.80
2022-10-13T11:16:52.572Z,98.82
2022-10-13T11:17:56.896Z,98.82
2022-10-13T11:19:01.281Z,98.79
2022-10-13T11:20:05.514Z,98.82
2022-10-13T11:21:09.920Z,98.82
2022-10-13T11:22:14.175Z,98.86
2022-10-13T11:23:18.496Z,98.76
2022-10-13T11:24:22.805Z,98.72
2022-10-13T11:25:27.067Z,98.74
2022-10-13T11:26:31.423Z,98.80
2022-10-13T11:27:35.683Z,98.72
2022-10-13T11:28:40.018Z,98.66
2022-10-13T11:29:58.363Z,98.58
2022-10-13T11:31:01.013Z,98.46
2022-10-13T11:32:05.230Z,98.36
2022-10-13T11:33:09.474Z,98.29
2022-10-13T11:34:13.778Z,98.19
2022-10-13T11:35:18.034Z,97.99
2022-10-13T11:36:22.412Z,97.92
2022-10-13T11:37:26.586Z,97.98
2022-10-13T11:38:30.836Z,98.01
2022-10-13T11:39:35.151Z,97.91
2022-10-13T11:40:39.561Z,97.69
2022-10-13T11:41:43.771Z,97.59
2022-10-13T11:42:48.084Z,97.59
2022-10-13T11:43:52.385Z,97.55
2022-10-13T11:44:56.737Z,97.45
2022-10-13T11:46:00.883Z,97.53
2022-10-13T11:47:05.200Z,97.64
2022-10-13T11:49:13.782Z,97.51
2022-10-13T11:50:18.036Z,97.52
2022-10-13T11:51:22.335Z,97.58
2022-10-13T11:52:26.628Z,97.37
2022-10-13T11:53:30.897Z,97.03
2022-10-13T11:54:35.168Z,97.00
2022-10-13T11:55:39.479Z,96.96
2022-10-13T11:56:46.113Z,97.00
2022-10-13T11:57:48.090Z,97.09
2022-10-13T11:58:52.341Z,97.01
2022-10-13T11:59:56.753Z,97.11
2022-10-13T12:01:00.911Z,97.07
2022-10-13T12:02:05.226Z,97.12
2022-10-13T12:03:09.573Z,97.09
2022-10-13T12:04:13.814Z,97.06
2022-10-13T12:05:18.138Z,96.86
2022-10-13T12:06:22.539Z,96.70
2022-10-13T12:07:26.784Z,96.64
2022-10-13T12:08:31.089Z,96.56
2022-10-13T12:09:35.449Z,96.22
2022-10-13T12:10:39.670Z,96.34
2022-10-13T12:11:43.980Z,96.17
2022-10-13T12:12:48.284Z,96.15
2022-10-13T12:13:52.628Z,95.96
2022-10-13T12:14:59.839Z,95.80
2022-10-13T12:16:01.188Z,95.68
2022-10-13T12:17:05.461Z,95.66
2022-10-13T12:18:09.786Z,95.75
2022-10-13T12:19:14.057Z,95.75
2022-10-13T12:20:18.447Z,95.76
2022-10-13T12:21:22.710Z,95.87
2022-10-13T12:22:26.945Z,95.79
2022-10-13T12:23:31.293Z,95.83
2022-10-13T12:24:35.579Z,95.90
2022-10-13T12:25:39.929Z,96.02
2022-10-13T12:26:44.180Z,96.01
2022-10-13T12:27:48.468Z,96.06
2022-10-13T12:28:52.884Z,95.96
2022-10-13T12:29:57.019Z,96.03
2022-10-13T12:31:01.367Z,96.01
2022-10-13T12:32:05.690Z,96.04
2022-10-13T12:33:10.062Z,96.07
2022-10-13T12:34:14.385Z,96.16
2022-10-13T12:35:18.624Z,95.99
2022-10-13T12:36:22.887Z,95.83
2022-10-13T12:37:27.168Z,95.98
2022-10-13T12:38:31.463Z,95.72
2022-10-13T12:39:35.803Z,95.36
2022-10-13T12:40:40.105Z,95.13
2022-10-13T12:41:44.386Z,95.10
2022-10-13T12:42:48.855Z,95.24
2022-10-13T12:43:52.953Z,95.33
2022-10-13T12:44:57.258Z,95.20
2022-10-13T12:46:01.565Z,95.35
2022-10-13T12:47:05.892Z,95.32
2022-10-13T12:48:10.144Z,95.34
2022-10-13T12:49:28.527Z,95.10
2022-10-13T12:50:31.795Z,95.08
2022-10-13T12:51:36.069Z,95.13
2022-10-13T12:52:40.311Z,95.00
2022-10-13T12:53:44.567Z,94.85
2022-10-13T12:54:48.814Z,94.83
2022-10-13T12:55:53.217Z,94.83
2022-10-13T12:56:57.471Z,94.77
2022-10-13T12:58:01.784Z,94.63
2022-10-13T12:59:06.100Z,94.39
2022-10-13T13:00:10.487Z,94.25
2022-10-13T13:01:14.819Z,94.42
2022-10-13T13:02:19.464Z,94.41
2022-10-13T13:03:23.327Z,94.49
2022-10-13T13:04:27.659Z,94.28
2022-10-13T13:05:32.093Z,94.01
2022-10-13T13:06:36.337Z,93.92
2022-10-13T13:07:40.600Z,93.71
2022-10-13T13:08:44.889Z,93.88
2022-10-13T13:09:49.186Z,94.14
2022-10-13T13:10:53.480Z,93.96
2022-10-13T13:11:57.874Z,94.03
2022-10-13T13:13:02.120Z,94.12
2022-10-13T13:14:06.400Z,94.20
2022-10-13T13:15:10.713Z,94.11
2022-10-13T13:16:15.023Z,94.11
2022-10-13T13:17:33.021Z,93.91
2022-10-13T13:18:23.547Z,93.90
2022-10-13T13:19:27.827Z,93.79
2022-10-13T13:20:32.150Z,94.02
2022-10-13T13:21:36.424Z,93.89
2022-10-13T13:22:40.783Z,93.97
2022-10-13T13:23:48.150Z,94.04
2022-10-13T13:24:49.299Z,93.97
2022-10-13T13:25:53.589Z,93.65
2022-10-13T13:26:57.952Z,93.66
2022-10-13T13:28:02.162Z,93.56
2022-10-13T13:29:06.454Z,93.44
2022-10-13T13:30:10.879Z,93.45
2022-10-13T13:31:15.131Z,93.62